sensor_id;sensor_type;location;lat;lon;timestamp;P1;durP1;ratioP1;P2;durP2;ratioP2
51266;SDS011;37338;47.426;19.204;2023-09-18T00:01:47;6.78;;;6.18;;
51266;SDS011;37338;47.426;19.204;2023-09-18T00:04:12;6.82;;;6.22;;
51266;SDS011;37338;47.426;19.204;2023-09-18T00:06:38;7.75;;;6.03;;
51266;SDS011;37338;47.426;19.204;2023-09-18T00:09:03;10.48;;;6.20;;
51266;SDS011;37338;47.426;19.204;2023-09-18T00:11:28;7.10;;;5.88;;
51266;SDS011;37338;47.426;19.204;2023-09-18T00:13:54;7.40;;;6.50;;
51266;SDS011;37338;47.426;19.204;2023-09-18T00:16:19;7.32;;;6.25;;
51266;SDS011;37338;47.426;19.204;2023-09-18T00:18:45;8.30;;;6.25;;
51266;SDS011;37338;47.426;19.204;2023-09-18T00:21:10;8.05;;;6.95;;
51266;SDS011;37338;47.426;19.204;2023-09-18T00:23:36;10.88;;;6.57;;
51266;SDS011;37338;47.426;19.204;2023-09-18T00:26:02;8.38;;;6.97;;
51266;SDS011;37338;47.426;19.204;2023-09-18T00:28:28;10.45;;;6.32;;
51266;SDS011;37338;47.426;19.204;2023-09-18T00:30:53;7.90;;;6.68;;
51266;SDS011;37338;47.426;19.204;2023-09-18T00:33:19;10.43;;;6.78;;
51266;SDS011;37338;47.426;19.204;2023-09-18T00:35:45;10.88;;;6.53;;
51266;SDS011;37338;47.426;19.204;2023-09-18T00:38:14;12.27;;;6.80;;
51266;SDS011;37338;47.426;19.204;2023-09-18T00:40:39;8.38;;;6.65;;
51266;SDS011;37338;47.426;19.204;2023-09-18T00:43:05;6.57;;;5.97;;
51266;SDS011;37338;47.426;19.204;2023-09-18T00:45:30;8.52;;;7.47;;
51266;SDS011;37338;47.426;19.204;2023-09-18T00:47:55;7.97;;;6.63;;
51266;SDS011;37338;47.426;19.204;2023-09-18T00:50:21;10.88;;;7.20;;
51266;SDS011;37338;47.426;19.204;2023-09-18T00:52:46;7.68;;;6.68;;
51266;SDS011;37338;47.426;19.204;2023-09-18T00:55:12;8.35;;;7.18;;
51266;SDS011;37338;47.426;19.204;2023-09-18T00:57:38;8.00;;;6.80;;
51266;SDS011;37338;47.426;19.204;2023-09-18T01:00:04;8.40;;;7.55;;
51266;SDS011;37338;47.426;19.204;2023-09-18T01:02:30;7.85;;;6.55;;
51266;SDS011;37338;47.426;19.204;2023-09-18T01:04:56;8.25;;;6.72;;
51266;SDS011;37338;47.426;19.204;2023-09-18T01:07:22;6.53;;;5.85;;
51266;SDS011;37338;47.426;19.204;2023-09-18T01:09:47;8.60;;;7.15;;
51266;SDS011;37338;47.426;19.204;2023-09-18T01:17:29;10.38;;;7.35;;
51266;SDS011;37338;47.426;19.204;2023-09-18T01:20:03;8.50;;;7.18;;
51266;SDS011;37338;47.426;19.204;2023-09-18T01:22:31;8.60;;;7.43;;
51266;SDS011;37338;47.426;19.204;2023-09-18T01:24:57;8.63;;;7.40;;
51266;SDS011;37338;47.426;19.204;2023-09-18T01:27:22;9.00;;;7.25;;
51266;SDS011;37338;47.426;19.204;2023-09-18T01:29:48;8.55;;;6.45;;
51266;SDS011;37338;47.426;19.204;2023-09-18T01:32:14;9.93;;;7.70;;
51266;SDS011;37338;47.426;19.204;2023-09-18T01:34:47;7.50;;;6.70;;
51266;SDS011;37338;47.426;19.204;2023-09-18T01:37:17;8.15;;;7.15;;
51266;SDS011;37338;47.426;19.204;2023-09-18T01:39:45;9.13;;;7.70;;
51266;SDS011;37338;47.426;19.204;2023-09-18T01:42:12;9.32;;;7.18;;
51266;SDS011;37338;47.426;19.204;2023-09-18T01:44:38;11.63;;;7.25;;
51266;SDS011;37338;47.426;19.204;2023-09-18T01:47:06;11.85;;;6.82;;
51266;SDS011;37338;47.426;19.204;2023-09-18T01:49:33;10.43;;;7.80;;
51266;SDS011;37338;47.426;19.204;2023-09-18T01:52:00;9.23;;;7.32;;
51266;SDS011;37338;47.426;19.204;2023-09-18T01:54:25;8.63;;;7.72;;
51266;SDS011;37338;47.426;19.204;2023-09-18T01:56:51;9.75;;;6.68;;
51266;SDS011;37338;47.426;19.204;2023-09-18T01:59:18;12.77;;;7.57;;
51266;SDS011;37338;47.426;19.204;2023-09-18T02:01:44;7.78;;;6.95;;
51266;SDS011;37338;47.426;19.204;2023-09-18T02:04:09;9.88;;;6.82;;
51266;SDS011;37338;47.426;19.204;2023-09-18T02:06:35;8.75;;;7.05;;
51266;SDS011;37338;47.426;19.204;2023-09-18T02:09:00;8.00;;;7.20;;
51266;SDS011;37338;47.426;19.204;2023-09-18T02:11:26;8.57;;;7.45;;
51266;SDS011;37338;47.426;19.204;2023-09-18T02:13:52;8.73;;;7.07;;
51266;SDS011;37338;47.426;19.204;2023-09-18T02:16:17;11.75;;;7.30;;
51266;SDS011;37338;47.426;19.204;2023-09-18T02:18:47;15.38;;;8.20;;
51266;SDS011;37338;47.426;19.204;2023-09-18T02:21:19;8.85;;;7.35;;
51266;SDS011;37338;47.426;19.204;2023-09-18T02:23:45;8.68;;;7.30;;
51266;SDS011;37338;47.426;19.204;2023-09-18T02:26:14;12.80;;;6.75;;
51266;SDS011;37338;47.426;19.204;2023-09-18T02:28:39;9.07;;;7.47;;
51266;SDS011;37338;47.426;19.204;2023-09-18T02:31:05;10.82;;;6.95;;
51266;SDS011;37338;47.426;19.204;2023-09-18T02:33:30;9.95;;;7.10;;
51266;SDS011;37338;47.426;19.204;2023-09-18T02:35:55;8.85;;;7.50;;
51266;SDS011;37338;47.426;19.204;2023-09-18T02:38:21;9.13;;;7.40;;
51266;SDS011;37338;47.426;19.204;2023-09-18T02:40:46;13.77;;;7.63;;
51266;SDS011;37338;47.426;19.204;2023-09-18T02:43:11;8.55;;;7.63;;
51266;SDS011;37338;47.426;19.204;2023-09-18T02:45:37;9.02;;;7.15;;
51266;SDS011;37338;47.426;19.204;2023-09-18T02:48:02;12.02;;;7.25;;
51266;SDS011;37338;47.426;19.204;2023-09-18T02:50:28;12.90;;;7.30;;
51266;SDS011;37338;47.426;19.204;2023-09-18T02:52:53;9.98;;;7.82;;
51266;SDS011;37338;47.426;19.204;2023-09-18T02:55:19;9.70;;;7.15;;
51266;SDS011;37338;47.426;19.204;2023-09-18T02:57:44;9.10;;;6.22;;
51266;SDS011;37338;47.426;19.204;2023-09-18T03:00:10;9.48;;;7.03;;
51266;SDS011;37338;47.426;19.204;2023-09-18T03:02:35;12.13;;;6.97;;
51266;SDS011;37338;47.426;19.204;2023-09-18T03:05:01;7.13;;;6.43;;
51266;SDS011;37338;47.426;19.204;2023-09-18T03:07:26;11.98;;;7.30;;
51266;SDS011;37338;47.426;19.204;2023-09-18T03:09:54;8.48;;;7.43;;
51266;SDS011;37338;47.426;19.204;2023-09-18T03:12:20;11.70;;;7.40;;
51266;SDS011;37338;47.426;19.204;2023-09-18T03:14:47;13.70;;;7.45;;
51266;SDS011;37338;47.426;19.204;2023-09-18T03:17:12;10.90;;;7.55;;
51266;SDS011;37338;47.426;19.204;2023-09-18T03:19:38;8.07;;;7.28;;
51266;SDS011;37338;47.426;19.204;2023-09-18T03:22:03;9.35;;;7.00;;
51266;SDS011;37338;47.426;19.204;2023-09-18T03:24:29;15.00;;;8.15;;
51266;SDS011;37338;47.426;19.204;2023-09-18T03:26:54;9.30;;;7.53;;
51266;SDS011;37338;47.426;19.204;2023-09-18T03:29:20;8.70;;;7.63;;
51266;SDS011;37338;47.426;19.204;2023-09-18T03:31:45;10.65;;;8.13;;
51266;SDS011;37338;47.426;19.204;2023-09-18T03:34:10;8.30;;;6.90;;
51266;SDS011;37338;47.426;19.204;2023-09-18T03:36:36;9.35;;;7.78;;
51266;SDS011;37338;47.426;19.204;2023-09-18T03:39:02;10.18;;;7.75;;
51266;SDS011;37338;47.426;19.204;2023-09-18T03:41:29;11.35;;;7.63;;
51266;SDS011;37338;47.426;19.204;2023-09-18T03:43:59;13.63;;;7.65;;
51266;SDS011;37338;47.426;19.204;2023-09-18T03:46:27;13.05;;;7.47;;
51266;SDS011;37338;47.426;19.204;2023-09-18T03:48:52;11.68;;;7.97;;
51266;SDS011;37338;47.426;19.204;2023-09-18T03:51:18;10.32;;;8.38;;
51266;SDS011;37338;47.426;19.204;2023-09-18T03:53:44;10.70;;;7.50;;
51266;SDS011;37338;47.426;19.204;2023-09-18T03:56:09;10.27;;;7.72;;
51266;SDS011;37338;47.426;19.204;2023-09-18T03:58:35;10.10;;;7.63;;
51266;SDS011;37338;47.426;19.204;2023-09-18T04:01:01;15.30;;;7.85;;
51266;SDS011;37338;47.426;19.204;2023-09-18T04:03:27;11.48;;;8.25;;
51266;SDS011;37338;47.426;19.204;2023-09-18T04:05:52;12.38;;;8.50;;
51266;SDS011;37338;47.426;19.204;2023-09-18T04:08:17;19.08;;;8.65;;
51266;SDS011;37338;47.426;19.204;2023-09-18T04:10:43;12.38;;;8.05;;
51266;SDS011;37338;47.426;19.204;2023-09-18T04:13:10;10.48;;;7.95;;
51266;SDS011;37338;47.426;19.204;2023-09-18T04:15:35;11.00;;;8.65;;
51266;SDS011;37338;47.426;19.204;2023-09-18T04:18:03;13.00;;;8.15;;
51266;SDS011;37338;47.426;19.204;2023-09-18T04:20:29;11.80;;;8.13;;
51266;SDS011;37338;47.426;19.204;2023-09-18T04:25:53;12.50;;;7.80;;
51266;SDS011;37338;47.426;19.204;2023-09-18T04:28:20;13.07;;;8.07;;
51266;SDS011;37338;47.426;19.204;2023-09-18T04:30:47;13.02;;;8.30;;
51266;SDS011;37338;47.426;19.204;2023-09-18T04:33:13;11.32;;;7.80;;
51266;SDS011;37338;47.426;19.204;2023-09-18T04:35:39;13.30;;;8.43;;
51266;SDS011;37338;47.426;19.204;2023-09-18T04:38:06;10.52;;;8.45;;
51266;SDS011;37338;47.426;19.204;2023-09-18T04:40:31;13.40;;;9.02;;
51266;SDS011;37338;47.426;19.204;2023-09-18T04:42:58;15.18;;;9.05;;
51266;SDS011;37338;47.426;19.204;2023-09-18T04:45:23;11.02;;;8.60;;
51266;SDS011;37338;47.426;19.204;2023-09-18T04:47:50;11.52;;;8.60;;
51266;SDS011;37338;47.426;19.204;2023-09-18T04:50:15;14.77;;;9.00;;
51266;SDS011;37338;47.426;19.204;2023-09-18T04:52:40;16.77;;;8.82;;
51266;SDS011;37338;47.426;19.204;2023-09-18T04:55:07;12.07;;;8.95;;
51266;SDS011;37338;47.426;19.204;2023-09-18T04:57:33;16.33;;;9.32;;
51266;SDS011;37338;47.426;19.204;2023-09-18T04:59:59;22.17;;;9.40;;
51266;SDS011;37338;47.426;19.204;2023-09-18T05:02:24;14.98;;;9.73;;
51266;SDS011;37338;47.426;19.204;2023-09-18T05:04:50;14.85;;;9.45;;
51266;SDS011;37338;47.426;19.204;2023-09-18T05:07:16;17.13;;;8.68;;
51266;SDS011;37338;47.426;19.204;2023-09-18T05:09:42;21.48;;;9.73;;
51266;SDS011;37338;47.426;19.204;2023-09-18T05:12:08;18.77;;;8.95;;
51266;SDS011;37338;47.426;19.204;2023-09-18T05:14:38;18.98;;;8.73;;
51266;SDS011;37338;47.426;19.204;2023-09-18T05:17:09;11.55;;;8.07;;
51266;SDS011;37338;47.426;19.204;2023-09-18T05:19:36;18.60;;;9.50;;
51266;SDS011;37338;47.426;19.204;2023-09-18T05:22:01;11.93;;;8.43;;
51266;SDS011;37338;47.426;19.204;2023-09-18T05:24:28;11.63;;;8.20;;
51266;SDS011;37338;47.426;19.204;2023-09-18T05:26:54;21.67;;;9.15;;
51266;SDS011;37338;47.426;19.204;2023-09-18T05:29:19;16.27;;;8.20;;
51266;SDS011;37338;47.426;19.204;2023-09-18T05:31:45;11.40;;;8.07;;
51266;SDS011;37338;47.426;19.204;2023-09-18T05:34:11;9.90;;;8.07;;
51266;SDS011;37338;47.426;19.204;2023-09-18T05:36:37;13.27;;;9.30;;
51266;SDS011;37338;47.426;19.204;2023-09-18T05:39:02;13.40;;;8.63;;
51266;SDS011;37338;47.426;19.204;2023-09-18T05:41:28;12.07;;;8.38;;
51266;SDS011;37338;47.426;19.204;2023-09-18T05:43:54;13.85;;;8.15;;
51266;SDS011;37338;47.426;19.204;2023-09-18T05:46:20;12.95;;;7.35;;
51266;SDS011;37338;47.426;19.204;2023-09-18T05:48:45;15.32;;;8.20;;
51266;SDS011;37338;47.426;19.204;2023-09-18T05:51:11;16.02;;;8.07;;
51266;SDS011;37338;47.426;19.204;2023-09-18T05:53:36;18.00;;;8.25;;
51266;SDS011;37338;47.426;19.204;2023-09-18T05:56:03;9.55;;;7.75;;
51266;SDS011;37338;47.426;19.204;2023-09-18T05:58:29;12.23;;;7.05;;
51266;SDS011;37338;47.426;19.204;2023-09-18T06:00:58;10.60;;;6.55;;
51266;SDS011;37338;47.426;19.204;2023-09-18T06:03:25;9.77;;;7.20;;
51266;SDS011;37338;47.426;19.204;2023-09-18T06:05:51;9.82;;;6.78;;
51266;SDS011;37338;47.426;19.204;2023-09-18T06:08:17;8.00;;;6.72;;
51266;SDS011;37338;47.426;19.204;2023-09-18T06:10:44;11.95;;;6.70;;
51266;SDS011;37338;47.426;19.204;2023-09-18T06:13:09;8.30;;;6.57;;
51266;SDS011;37338;47.426;19.204;2023-09-18T06:15:35;7.93;;;6.63;;
51266;SDS011;37338;47.426;19.204;2023-09-18T06:18:00;8.13;;;6.97;;
51266;SDS011;37338;47.426;19.204;2023-09-18T06:20:26;8.65;;;6.05;;
51266;SDS011;37338;47.426;19.204;2023-09-18T06:22:52;9.82;;;6.55;;
51266;SDS011;37338;47.426;19.204;2023-09-18T06:25:17;7.43;;;6.28;;
51266;SDS011;37338;47.426;19.204;2023-09-18T06:27:43;10.10;;;6.78;;
51266;SDS011;37338;47.426;19.204;2023-09-18T06:30:08;8.40;;;5.78;;
51266;SDS011;37338;47.426;19.204;2023-09-18T06:32:34;10.35;;;6.60;;
51266;SDS011;37338;47.426;19.204;2023-09-18T06:35:02;11.52;;;6.68;;
51266;SDS011;37338;47.426;19.204;2023-09-18T06:37:27;8.88;;;6.10;;
51266;SDS011;37338;47.426;19.204;2023-09-18T06:39:53;9.07;;;6.43;;
51266;SDS011;37338;47.426;19.204;2023-09-18T06:42:18;7.15;;;5.97;;
51266;SDS011;37338;47.426;19.204;2023-09-18T06:44:44;7.68;;;6.68;;
51266;SDS011;37338;47.426;19.204;2023-09-18T06:47:09;12.23;;;7.72;;
51266;SDS011;37338;47.426;19.204;2023-09-18T06:49:35;9.38;;;6.93;;
51266;SDS011;37338;47.426;19.204;2023-09-18T06:52:00;12.73;;;6.88;;
51266;SDS011;37338;47.426;19.204;2023-09-18T06:54:26;11.60;;;6.78;;
51266;SDS011;37338;47.426;19.204;2023-09-18T06:56:51;10.18;;;5.80;;
51266;SDS011;37338;47.426;19.204;2023-09-18T06:59:16;7.90;;;6.38;;
51266;SDS011;37338;47.426;19.204;2023-09-18T07:01:42;18.83;;;6.13;;
51266;SDS011;37338;47.426;19.204;2023-09-18T07:04:07;7.43;;;6.50;;
51266;SDS011;37338;47.426;19.204;2023-09-18T07:06:33;8.45;;;6.30;;
51266;SDS011;37338;47.426;19.204;2023-09-18T07:08:58;8.20;;;5.82;;
51266;SDS011;37338;47.426;19.204;2023-09-18T07:11:24;6.82;;;5.72;;
51266;SDS011;37338;47.426;19.204;2023-09-18T07:13:50;7.57;;;6.35;;
51266;SDS011;37338;47.426;19.204;2023-09-18T07:16:15;9.35;;;6.47;;
51266;SDS011;37338;47.426;19.204;2023-09-18T07:18:41;10.38;;;5.95;;
51266;SDS011;37338;47.426;19.204;2023-09-18T07:21:06;9.18;;;6.20;;
51266;SDS011;37338;47.426;19.204;2023-09-18T07:23:32;7.43;;;5.90;;
51266;SDS011;37338;47.426;19.204;2023-09-18T07:26:00;7.78;;;5.88;;
51266;SDS011;37338;47.426;19.204;2023-09-18T07:28:26;10.98;;;5.82;;
51266;SDS011;37338;47.426;19.204;2023-09-18T07:30:51;11.15;;;6.55;;
51266;SDS011;37338;47.426;19.204;2023-09-18T07:33:16;7.60;;;6.13;;
51266;SDS011;37338;47.426;19.204;2023-09-18T07:35:47;10.35;;;6.22;;
51266;SDS011;37338;47.426;19.204;2023-09-18T07:38:13;13.20;;;6.03;;
51266;SDS011;37338;47.426;19.204;2023-09-18T07:40:39;7.88;;;5.90;;
51266;SDS011;37338;47.426;19.204;2023-09-18T07:43:05;10.02;;;6.55;;
51266;SDS011;37338;47.426;19.204;2023-09-18T07:45:30;10.57;;;7.10;;
51266;SDS011;37338;47.426;19.204;2023-09-18T07:47:56;9.13;;;6.45;;
51266;SDS011;37338;47.426;19.204;2023-09-18T07:50:21;8.75;;;5.55;;
51266;SDS011;37338;47.426;19.204;2023-09-18T07:52:46;11.43;;;6.35;;
51266;SDS011;37338;47.426;19.204;2023-09-18T07:55:12;9.70;;;6.82;;
51266;SDS011;37338;47.426;19.204;2023-09-18T07:57:37;8.45;;;6.53;;
51266;SDS011;37338;47.426;19.204;2023-09-18T08:00:03;9.02;;;6.85;;
51266;SDS011;37338;47.426;19.204;2023-09-18T08:02:32;8.27;;;6.32;;
51266;SDS011;37338;47.426;19.204;2023-09-18T08:04:59;8.98;;;5.70;;
51266;SDS011;37338;47.426;19.204;2023-09-18T08:07:26;9.65;;;5.88;;
51266;SDS011;37338;47.426;19.204;2023-09-18T08:09:53;7.85;;;5.82;;
51266;SDS011;37338;47.426;19.204;2023-09-18T08:12:18;9.48;;;6.35;;
51266;SDS011;37338;47.426;19.204;2023-09-18T08:14:44;9.80;;;5.88;;
51266;SDS011;37338;47.426;19.204;2023-09-18T08:17:09;7.10;;;5.63;;
51266;SDS011;37338;47.426;19.204;2023-09-18T08:19:34;10.15;;;6.40;;
51266;SDS011;37338;47.426;19.204;2023-09-18T08:22:01;7.82;;;6.35;;
51266;SDS011;37338;47.426;19.204;2023-09-18T08:24:26;10.20;;;6.07;;
51266;SDS011;37338;47.426;19.204;2023-09-18T08:26:52;8.20;;;5.85;;
51266;SDS011;37338;47.426;19.204;2023-09-18T08:29:18;10.88;;;6.55;;
51266;SDS011;37338;47.426;19.204;2023-09-18T08:31:44;20.25;;;6.57;;
51266;SDS011;37338;47.426;19.204;2023-09-18T08:34:09;8.07;;;6.28;;
51266;SDS011;37338;47.426;19.204;2023-09-18T08:36:35;8.35;;;5.95;;
51266;SDS011;37338;47.426;19.204;2023-09-18T08:39:00;8.73;;;6.43;;
51266;SDS011;37338;47.426;19.204;2023-09-18T08:41:28;9.30;;;6.20;;
51266;SDS011;37338;47.426;19.204;2023-09-18T08:43:58;8.27;;;6.30;;
51266;SDS011;37338;47.426;19.204;2023-09-18T08:46:25;8.95;;;6.32;;
51266;SDS011;37338;47.426;19.204;2023-09-18T08:48:51;8.35;;;6.03;;
51266;SDS011;37338;47.426;19.204;2023-09-18T08:51:16;15.00;;;6.05;;
51266;SDS011;37338;47.426;19.204;2023-09-18T08:53:43;8.20;;;6.28;;
51266;SDS011;37338;47.426;19.204;2023-09-18T08:56:09;15.13;;;6.18;;
51266;SDS011;37338;47.426;19.204;2023-09-18T08:58:35;11.52;;;6.82;;
51266;SDS011;37338;47.426;19.204;2023-09-18T09:01:03;9.32;;;6.28;;
51266;SDS011;37338;47.426;19.204;2023-09-18T09:03:29;9.45;;;5.90;;
51266;SDS011;37338;47.426;19.204;2023-09-18T09:05:55;9.23;;;6.53;;
51266;SDS011;37338;47.426;19.204;2023-09-18T09:08:21;10.02;;;6.40;;
51266;SDS011;37338;47.426;19.204;2023-09-18T09:10:46;13.15;;;6.65;;
51266;SDS011;37338;47.426;19.204;2023-09-18T09:13:13;15.13;;;6.15;;
51266;SDS011;37338;47.426;19.204;2023-09-18T09:15:45;8.73;;;6.53;;
51266;SDS011;37338;47.426;19.204;2023-09-18T09:18:12;9.23;;;6.22;;
51266;SDS011;37338;47.426;19.204;2023-09-18T09:20:40;11.95;;;6.32;;
51266;SDS011;37338;47.426;19.204;2023-09-18T09:23:07;10.88;;;6.55;;
51266;SDS011;37338;47.426;19.204;2023-09-18T09:25:34;7.00;;;6.40;;
51266;SDS011;37338;47.426;19.204;2023-09-18T09:28:00;11.60;;;6.32;;
51266;SDS011;37338;47.426;19.204;2023-09-18T09:30:28;12.38;;;6.38;;
51266;SDS011;37338;47.426;19.204;2023-09-18T09:32:55;9.77;;;5.93;;
51266;SDS011;37338;47.426;19.204;2023-09-18T09:35:22;8.27;;;6.13;;
51266;SDS011;37338;47.426;19.204;2023-09-18T09:37:52;8.02;;;6.13;;
51266;SDS011;37338;47.426;19.204;2023-09-18T09:40:20;9.57;;;5.78;;
51266;SDS011;37338;47.426;19.204;2023-09-18T09:42:47;10.45;;;5.78;;
51266;SDS011;37338;47.426;19.204;2023-09-18T09:45:14;10.60;;;6.65;;
51266;SDS011;37338;47.426;19.204;2023-09-18T09:47:41;8.05;;;6.05;;
51266;SDS011;37338;47.426;19.204;2023-09-18T09:50:10;7.75;;;5.80;;
51266;SDS011;37338;47.426;19.204;2023-09-18T09:52:45;9.48;;;6.00;;
51266;SDS011;37338;47.426;19.204;2023-09-18T09:55:20;7.57;;;5.57;;
51266;SDS011;37338;47.426;19.204;2023-09-18T10:00:31;7.35;;;6.65;;
51266;SDS011;37338;47.426;19.204;2023-09-18T10:03:03;10.23;;;5.88;;
51266;SDS011;37338;47.426;19.204;2023-09-18T10:05:34;7.15;;;5.88;;
51266;SDS011;37338;47.426;19.204;2023-09-18T10:08:06;8.52;;;5.93;;
51266;SDS011;37338;47.426;19.204;2023-09-18T10:10:34;6.77;;;6.07;;
51266;SDS011;37338;47.426;19.204;2023-09-18T10:13:08;9.40;;;6.55;;
51266;SDS011;37338;47.426;19.204;2023-09-18T10:15:36;10.65;;;6.50;;
51266;SDS011;37338;47.426;19.204;2023-09-18T10:18:10;10.48;;;6.25;;
51266;SDS011;37338;47.426;19.204;2023-09-18T10:21:17;7.43;;;6.00;;
51266;SDS011;37338;47.426;19.204;2023-09-18T10:26:27;11.48;;;7.05;;
51266;SDS011;37338;47.426;19.204;2023-09-18T10:28:54;10.02;;;6.50;;
51266;SDS011;37338;47.426;19.204;2023-09-18T10:31:23;9.38;;;6.18;;
51266;SDS011;37338;47.426;19.204;2023-09-18T10:33:50;7.90;;;6.05;;
51266;SDS011;37338;47.426;19.204;2023-09-18T10:36:16;9.57;;;5.70;;
51266;SDS011;37338;47.426;19.204;2023-09-18T10:38:44;8.85;;;6.40;;
51266;SDS011;37338;47.426;19.204;2023-09-18T10:41:14;10.85;;;5.82;;
51266;SDS011;37338;47.426;19.204;2023-09-18T10:43:42;8.75;;;6.45;;
51266;SDS011;37338;47.426;19.204;2023-09-18T10:46:08;8.35;;;6.57;;
51266;SDS011;37338;47.426;19.204;2023-09-18T10:48:33;9.07;;;6.97;;
51266;SDS011;37338;47.426;19.204;2023-09-18T10:50:59;9.10;;;6.47;;
51266;SDS011;37338;47.426;19.204;2023-09-18T10:53:31;8.30;;;6.60;;
51266;SDS011;37338;47.426;19.204;2023-09-18T10:55:57;9.18;;;6.55;;
51266;SDS011;37338;47.426;19.204;2023-09-18T10:58:23;8.13;;;6.03;;
51266;SDS011;37338;47.426;19.204;2023-09-18T11:00:50;5.95;;;5.40;;
51266;SDS011;37338;47.426;19.204;2023-09-18T11:03:16;7.78;;;5.85;;
51266;SDS011;37338;47.426;19.204;2023-09-18T11:05:46;8.82;;;5.88;;
51266;SDS011;37338;47.426;19.204;2023-09-18T11:08:31;9.75;;;6.45;;
51266;SDS011;37338;47.426;19.204;2023-09-18T11:11:17;8.00;;;6.30;;
51266;SDS011;37338;47.426;19.204;2023-09-18T11:13:46;8.63;;;5.80;;
51266;SDS011;37338;47.426;19.204;2023-09-18T11:18:40;8.65;;;6.20;;
51266;SDS011;37338;47.426;19.204;2023-09-18T11:21:09;9.45;;;5.90;;
51266;SDS011;37338;47.426;19.204;2023-09-18T11:23:36;5.97;;;5.07;;
51266;SDS011;37338;47.426;19.204;2023-09-18T11:26:11;6.72;;;6.03;;
51266;SDS011;37338;47.426;19.204;2023-09-18T11:28:37;13.63;;;6.43;;
51266;SDS011;37338;47.426;19.204;2023-09-18T11:31:03;12.13;;;5.80;;
51266;SDS011;37338;47.426;19.204;2023-09-18T11:33:32;10.00;;;5.80;;
51266;SDS011;37338;47.426;19.204;2023-09-18T11:38:53;7.60;;;6.07;;
51266;SDS011;37338;47.426;19.204;2023-09-18T11:41:23;7.20;;;6.57;;
51266;SDS011;37338;47.426;19.204;2023-09-18T11:43:50;7.57;;;6.80;;
51266;SDS011;37338;47.426;19.204;2023-09-18T11:46:19;8.55;;;6.72;;
51266;SDS011;37338;47.426;19.204;2023-09-18T11:48:49;12.25;;;6.30;;
51266;SDS011;37338;47.426;19.204;2023-09-18T11:51:21;12.48;;;6.20;;
51266;SDS011;37338;47.426;19.204;2023-09-18T11:53:49;7.28;;;5.25;;
51266;SDS011;37338;47.426;19.204;2023-09-18T11:56:15;8.70;;;6.10;;
51266;SDS011;37338;47.426;19.204;2023-09-18T11:58:50;7.25;;;5.78;;
51266;SDS011;37338;47.426;19.204;2023-09-18T12:01:17;8.00;;;5.97;;
51266;SDS011;37338;47.426;19.204;2023-09-18T12:03:43;8.80;;;5.97;;
51266;SDS011;37338;47.426;19.204;2023-09-18T12:06:10;12.27;;;6.32;;
51266;SDS011;37338;47.426;19.204;2023-09-18T12:08:38;11.80;;;5.65;;
51266;SDS011;37338;47.426;19.204;2023-09-18T12:11:05;9.15;;;6.57;;
51266;SDS011;37338;47.426;19.204;2023-09-18T12:13:31;8.85;;;6.55;;
51266;SDS011;37338;47.426;19.204;2023-09-18T12:15:56;8.27;;;6.35;;
51266;SDS011;37338;47.426;19.204;2023-09-18T12:18:23;6.95;;;6.25;;
51266;SDS011;37338;47.426;19.204;2023-09-18T12:20:50;10.38;;;6.60;;
51266;SDS011;37338;47.426;19.204;2023-09-18T12:23:16;7.75;;;7.05;;
51266;SDS011;37338;47.426;19.204;2023-09-18T12:25:44;7.18;;;6.57;;
51266;SDS011;37338;47.426;19.204;2023-09-18T12:28:12;8.80;;;6.30;;
51266;SDS011;37338;47.426;19.204;2023-09-18T12:30:39;9.00;;;6.47;;
51266;SDS011;37338;47.426;19.204;2023-09-18T12:33:05;15.20;;;6.78;;
51266;SDS011;37338;47.426;19.204;2023-09-18T12:35:30;18.38;;;6.70;;
51266;SDS011;37338;47.426;19.204;2023-09-18T12:37:59;7.35;;;5.65;;
51266;SDS011;37338;47.426;19.204;2023-09-18T12:42:55;8.68;;;6.03;;
51266;SDS011;37338;47.426;19.204;2023-09-18T12:45:22;11.35;;;6.60;;
51266;SDS011;37338;47.426;19.204;2023-09-18T12:47:47;8.88;;;6.55;;
51266;SDS011;37338;47.426;19.204;2023-09-18T12:50:13;10.93;;;5.88;;
51266;SDS011;37338;47.426;19.204;2023-09-18T12:52:39;9.27;;;7.32;;
51266;SDS011;37338;47.426;19.204;2023-09-18T12:55:05;7.07;;;6.38;;
51266;SDS011;37338;47.426;19.204;2023-09-18T12:57:32;6.78;;;5.97;;
51266;SDS011;37338;47.426;19.204;2023-09-18T12:59:58;7.95;;;5.57;;
51266;SDS011;37338;47.426;19.204;2023-09-18T13:02:23;8.43;;;5.70;;
51266;SDS011;37338;47.426;19.204;2023-09-18T13:04:52;8.93;;;5.88;;
51266;SDS011;37338;47.426;19.204;2023-09-18T13:07:19;9.25;;;6.30;;
51266;SDS011;37338;47.426;19.204;2023-09-18T13:10:04;7.45;;;5.95;;
51266;SDS011;37338;47.426;19.204;2023-09-18T13:12:41;8.45;;;6.45;;
51266;SDS011;37338;47.426;19.204;2023-09-18T13:15:31;6.75;;;6.05;;
51266;SDS011;37338;47.426;19.204;2023-09-18T13:17:58;12.45;;;6.53;;
51266;SDS011;37338;47.426;19.204;2023-09-18T13:20:28;11.40;;;7.72;;
51266;SDS011;37338;47.426;19.204;2023-09-18T13:22:57;13.68;;;6.93;;
51266;SDS011;37338;47.426;19.204;2023-09-18T13:25:29;7.20;;;5.40;;
51266;SDS011;37338;47.426;19.204;2023-09-18T13:27:55;10.52;;;5.90;;
51266;SDS011;37338;47.426;19.204;2023-09-18T13:30:21;10.40;;;5.63;;
51266;SDS011;37338;47.426;19.204;2023-09-18T13:32:48;7.15;;;5.63;;
51266;SDS011;37338;47.426;19.204;2023-09-18T13:35:18;6.32;;;5.38;;
51266;SDS011;37338;47.426;19.204;2023-09-18T13:37:44;11.07;;;5.93;;
51266;SDS011;37338;47.426;19.204;2023-09-18T13:40:10;10.68;;;5.65;;
51266;SDS011;37338;47.426;19.204;2023-09-18T13:42:36;9.52;;;6.03;;
51266;SDS011;37338;47.426;19.204;2023-09-18T13:45:03;6.65;;;6.00;;
51266;SDS011;37338;47.426;19.204;2023-09-18T13:47:32;9.20;;;5.88;;
51266;SDS011;37338;47.426;19.204;2023-09-18T13:50:02;13.70;;;5.65;;
51266;SDS011;37338;47.426;19.204;2023-09-18T13:52:29;12.45;;;5.97;;
51266;SDS011;37338;47.426;19.204;2023-09-18T13:54:56;9.07;;;6.18;;
51266;SDS011;37338;47.426;19.204;2023-09-18T13:57:21;10.13;;;6.07;;
51266;SDS011;37338;47.426;19.204;2023-09-18T13:59:48;10.45;;;6.18;;
51266;SDS011;37338;47.426;19.204;2023-09-18T14:02:14;14.32;;;5.85;;
51266;SDS011;37338;47.426;19.204;2023-09-18T14:04:41;7.97;;;5.65;;
51266;SDS011;37338;47.426;19.204;2023-09-18T14:07:07;7.25;;;5.50;;
51266;SDS011;37338;47.426;19.204;2023-09-18T14:09:33;8.57;;;5.80;;
51266;SDS011;37338;47.426;19.204;2023-09-18T14:11:59;8.57;;;5.60;;
51266;SDS011;37338;47.426;19.204;2023-09-18T14:14:24;9.40;;;5.22;;
51266;SDS011;37338;47.426;19.204;2023-09-18T14:16:50;7.22;;;5.50;;
51266;SDS011;37338;47.426;19.204;2023-09-18T14:19:16;10.32;;;6.63;;
51266;SDS011;37338;47.426;19.204;2023-09-18T14:21:42;6.90;;;5.32;;
51266;SDS011;37338;47.426;19.204;2023-09-18T14:24:08;16.30;;;6.60;;
51266;SDS011;37338;47.426;19.204;2023-09-18T14:26:35;17.63;;;6.13;;
51266;SDS011;37338;47.426;19.204;2023-09-18T14:29:08;9.23;;;5.30;;
51266;SDS011;37338;47.426;19.204;2023-09-18T14:31:34;9.13;;;5.68;;
51266;SDS011;37338;47.426;19.204;2023-09-18T14:34:01;9.38;;;5.53;;
51266;SDS011;37338;47.426;19.204;2023-09-18T14:36:26;10.40;;;5.53;;
51266;SDS011;37338;47.426;19.204;2023-09-18T14:38:51;7.88;;;5.63;;
51266;SDS011;37338;47.426;19.204;2023-09-18T14:41:17;12.07;;;5.97;;
51266;SDS011;37338;47.426;19.204;2023-09-18T14:43:44;7.40;;;5.82;;
51266;SDS011;37338;47.426;19.204;2023-09-18T14:46:10;8.63;;;5.40;;
51266;SDS011;37338;47.426;19.204;2023-09-18T14:48:35;10.43;;;5.32;;